首页
METAR-TAF:

METAR-TAF

机场 :

Buffalo Narrows, 曼尼托巴, 加拿大

纬度: 55-50N, 经度: 108-27W, 海拔: 434米

当前天气观测

该预报发布于24分钟前的23:00 UTC
风速14节,风向西转西北,有时为24节阵风
温度 -1°C
湿度 74%
气压 1003 hPa
能見度: 14.5公里
少量云层高于3700英尺
多云层高于9300英尺
阴天层高于11000英尺

METAR: CYVT 072300Z AUTO 30014G24KT 9SM FEW037 BKN093 OVC110 M01/M05 A2962 RMK SLP061

时间: 18:24 (23:24 UTC)

预报

该预报发布于2小时和46分钟前的20:38 UTC
预报有效从07日的 21点(UTC)到 08日的 04点(UTC)
风速12节,风向西北,有时为25节阵风
能見度: 9.7公里
阴天层高于3000英尺
小雪
短暂存在
从 07日的 21点(UTC)到 08日的 04点(UTC)
阴天层高于2000英尺
小阵雪
几率 30%
从 07日的 21点(UTC)到 08日的 04点(UTC)
能見度: 1.6公里
小阵雪

TAF: CYVT 072038Z 0721/0804 32012G25KT 6SM -SN OVC030 TEMPO 0721/0804 11/2SM -SHSN OVC020 PROB30 0721/0804 1SM -SHSN RMK FCST BASED ON AUTO OBS. NXT FCST WILL BE ISSUED AT 081345Z

超过4000个机场的气象观测和天气预报(METAR&TAF报告)。

可查询的气象台以黄色和红色小点在地图上表示。

将鼠标移到小点上方,可查看气象台名称。

然后点击查看天气观测和预报。

如需切换地图:点击带黑十字的绿色按钮放大地图;点击带横线的绿色按钮缩小地图;或者点击绿色箭头查看邻近地区的地图。


METAR-TAF: